Time;durP1;ratioP1;P1;durP2;ratioP2;P2;SDS_P1;SDS_P2;PMS_P1;PMS_P2;Temp;Humidity;BMP_temperature;BMP_pressure;BME280_temperature;BME280_humidity;BME280_pressure;Samples;Min_cycle;Max_cycle;Signal;HPM_P1;HPM_P2
2022/09/10 00:02:23;;;;;;;5.20;4.30;;;;;;;15.29;95.94;98425.21;220097;1281;23318;-79
2022/09/10 00:08:38;;;;;;;7.90;4.60;;;;;;;15.19;96.38;98433.02;220142;1278;22549;-80
2022/09/10 00:15:27;;;;;;;;;;;;;;;;;;;;;
2022/09/10 00:22:16;;;;;;;;;;;;;;;;;;;;;
2022/09/10 00:28:03;;;;;;;11.80;4.60;;;;;;;15.04;97.27;98450.48;219542;1279;25379;-80
2022/09/10 00:34:24;;;;;;;;;;;;;;;;;;;;;
2022/09/10 00:40:50;;;;;;;4.60;3.80;;;;;;;15.02;97.98;98463.93;219538;1283;22882;-80
2022/09/10 00:47:08;;;;;;;10.00;4.70;;;;;;;15.02;98.15;98469.70;219082;1282;1003520;-81
2022/09/10 00:53:49;;;;;;;;;;;;;;;;;;;;;
2022/09/10 01:00:20;;;;;;;5.10;3.00;;;;;;;15.02;98.51;98479.58;220693;1276;22551;-80
2022/09/10 01:06:58;;;;;;;3.60;3.10;;;;;;;14.97;98.32;98484.61;220633;1279;22704;-80
2022/09/10 01:13:38;;;;;;;4.70;3.20;;;;;;;14.94;98.39;98477.87;220577;1279;25364;-80
2022/09/10 01:20:13;;;;;;;;;;;;;;;;;;;;;
2022/09/10 01:27:00;;;;;;;;;;;;;;;;;;;;;
2022/09/10 01:33:57;;;;;;;;;;;;;;;;;;;;;
2022/09/10 01:47:18;;;;;;;;;;;;;;;;;;;;;
2022/09/10 02:07:45;;;;;;;3.30;1.70;;;;;;;14.65;98.78;98427.73;218828;1284;22562;-79
2022/09/10 02:14:12;;;;;;;;;;;;;;;;;;;;;
2022/09/10 02:20:46;;;;;;;1.10;1.00;;;;;;;14.62;98.81;98424.42;218851;1284;24228;-80
2022/09/10 02:26:54;;;;;;;1.30;1.20;;;;;;;14.60;98.77;98422.73;218375;1284;24335;-79
2022/09/10 02:33:09;;;;;;;;;;;;;;;;;;;;;
2022/09/10 02:39:07;;;;;;;;;;;;;;;;;;;;;
2022/09/10 02:45:07;;;;;;;1.90;1.70;;;;;;;14.55;98.87;98410.98;217274;1287;22562;-79
2022/09/10 02:51:01;;;;;;;3.10;1.90;;;;;;;14.53;99.11;98417.16;217842;1287;22578;-80
2022/09/10 02:57:51;;;;;;;;;;;;;;;;;;;;;
2022/09/10 03:11:18;;;;;;;;;;;;;;;;;;;;;
2022/09/10 03:17:59;;;;;;;1.50;1.40;;;;;;;14.43;99.23;98424.05;219361;1284;22553;-79
2022/09/10 03:24:31;;;;;;;;;;;;;;;;;;;;;
2022/09/10 03:31:04;;;;;;;3.00;2.00;;;;;;;14.40;99.65;98433.70;219681;1284;26015;-80
2022/09/10 03:37:45;;;;;;;;;;;;;;;;;;;;;
2022/09/10 03:44:13;;;;;;;2.70;1.80;;;;;;;14.36;99.84;98410.48;219162;1284;24196;-80
2022/09/10 03:56:43;;;;;;;;;;;;;;;;;;;;;
2022/09/10 04:02:49;;;;;;;2.50;2.30;;;;;;;14.32;99.98;98406.52;218403;1284;22551;-81
2022/09/10 04:08:47;;;;;;;1.80;1.70;;;;;;;14.31;100.00;98398.29;219367;1284;22756;-80
2022/09/10 04:14:44;;;;;;;2.60;2.10;;;;;;;14.30;100.00;98384.51;219572;1284;24036;-81
2022/09/10 04:20:28;;;;;;;3.90;2.40;;;;;;;14.28;100.00;98377.34;219774;1284;24302;-80
2022/09/10 04:27:05;;;;;;;3.40;2.50;;;;;;;14.26;100.00;98386.08;220144;1279;22581;-79
2022/09/10 04:33:03;;;;;;;4.60;2.30;;;;;;;14.25;100.00;98382.36;220458;1279;25429;-79
2022/09/10 04:38:41;;;;;;;2.80;2.20;;;;;;;14.26;100.00;98376.54;220291;1279;23900;-79
2022/09/10 04:44:51;;;;;;;6.50;2.40;;;;;;;14.25;100.00;98375.90;220267;1281;22574;-80
2022/09/10 04:50:58;;;;;;;3.90;2.80;;;;;;;14.24;100.00;98372.54;219566;1276;22703;-79
2022/09/10 04:56:57;;;;;;;2.30;2.10;;;;;;;14.27;100.00;98368.67;220042;1275;24265;-78
2022/09/10 05:02:48;;;;;;;;;;;;;;;;;;;;;
2022/09/10 05:08:06;;;;;;;3.00;2.70;;;;;;;14.27;100.00;98357.13;220097;1278;22713;-80
2022/09/10 05:13:36;;;;;;;4.30;3.10;;;;;;;14.29;100.00;98349.51;219727;1278;24919;-79
2022/09/10 05:19:24;;;;;;;4.30;2.60;;;;;;;14.34;100.00;98342.80;220040;1278;22550;-79
2022/09/10 05:25:12;;;;;;;;;;;;;;;;;;;;;
2022/09/10 05:32:00;;;;;;;3.80;2.90;;;;;;;14.52;100.00;98352.36;220155;1277;25312;-80
2022/09/10 05:37:37;;;;;;;5.40;3.50;;;;;;;14.63;100.00;98352.60;124891;1277;1016184;-79
2022/09/10 05:43:14;;;;;;;5.10;3.40;;;;;;;14.75;100.00;98360.64;109898;1277;1018673;-79
2022/09/10 05:49:20;;;;;;;6.10;3.60;;;;;;;14.85;100.00;98356.91;108961;1287;1019647;-80
2022/09/10 05:56:08;;;;;;;5.00;4.50;;;;;;;15.00;100.00;98353.90;108948;1287;1017071;-79
2022/09/10 06:01:51;;;;;;;5.90;3.90;;;;;;;15.14;100.00;98352.97;108923;1287;1017005;-78
2022/09/10 06:08:27;;;;;;;4.40;3.70;;;;;;;15.32;100.00;98356.62;109787;1281;1018372;-79
2022/09/10 06:14:23;;;;;;;7.00;5.30;;;;;;;15.45;99.99;98359.73;109755;1277;1018948;-78
2022/09/10 06:19:42;;;;;;;6.40;4.60;;;;;;;15.57;100.00;98367.14;109788;1277;1016222;-79
2022/09/10 06:25:41;;;;;;;6.60;4.30;;;;;;;15.66;99.70;98365.31;109776;1277;1016499;-79
2022/09/10 06:31:35;;;;;;;7.20;5.40;;;;;;;15.76;99.55;98362.88;109908;1278;1016771;-78
2022/09/10 06:50:08;;;;;;;7.30;5.30;;;;;;;16.17;98.98;98358.58;109725;1284;1018838;-78
2022/09/10 06:55:47;;;;;;;7.00;5.50;;;;;;;16.37;98.26;98365.01;189761;1284;1015996;-78
2022/09/10 07:01:42;;;;;;;4.70;3.50;;;;;;;16.59;98.26;98375.05;219476;1284;22532;-79
2022/09/10 07:07:55;;;;;;;;;;;;;;;;;;;;;
2022/09/10 07:14:05;;;;;;;6.10;5.50;;;;;;;16.69;96.29;98385.10;220127;1277;23851;-79
2022/09/10 07:20:07;;;;;;;7.50;5.90;;;;;;;16.83;96.55;98383.23;220093;1277;25402;-79
2022/09/10 07:26:11;;;;;;;8.80;6.70;;;;;;;17.01;95.62;98383.16;220471;1278;24374;-78
2022/09/10 07:31:36;;;;;;;8.30;5.80;;;;;;;17.10;94.67;98383.23;220407;1277;22677;-78
2022/09/10 07:37:26;;;;;;;35.80;24.50;;;;;;;17.19;94.95;98387.90;220230;1276;22817;-77
2022/09/10 07:42:55;;;;;;;11.30;7.70;;;;;;;17.34;94.99;98386.30;220362;1277;23610;-79
2022/09/10 07:48:10;;;;;;;10.60;8.30;;;;;;;17.52;94.80;98385.98;221023;1276;22554;-78
2022/09/10 07:53:22;;;;;;;14.70;10.90;;;;;;;17.61;93.40;98385.77;189521;1276;1004610;-79
2022/09/10 07:58:36;;;;;;;19.30;13.90;;;;;;;17.60;92.74;98387.36;110083;1277;1018977;-78
2022/09/10 08:04:10;;;;;;;23.10;15.60;;;;;;;17.71;93.15;98387.52;109672;1281;1016941;-78
2022/09/10 08:09:35;;;;;;;22.10;15.70;;;;;;;17.87;92.80;98384.98;109861;1279;1018045;-77
2022/09/10 08:14:42;;;;;;;20.60;12.60;;;;;;;18.05;92.59;98380.93;109929;1279;1015925;-78
2022/09/10 08:20:10;;;;;;;21.50;14.50;;;;;;;18.20;91.46;98383.06;208004;1279;1015293;-78
2022/09/10 08:25:15;;;;;;;21.10;16.60;;;;;;;18.39;91.15;98385.11;219977;1279;23293;-78
2022/09/10 08:30:19;;;;;;;24.20;18.30;;;;;;;18.68;91.04;98392.86;219775;1279;24542;-77
2022/09/10 08:35:56;;;;;;;21.30;16.50;;;;;;;18.99;90.63;98398.31;221599;1278;22580;-79
2022/09/10 08:41:40;;;;;;;27.40;21.50;;;;;;;19.27;89.45;98402.42;221545;1278;24295;-79
2022/09/10 08:47:07;;;;;;;27.50;21.80;;;;;;;19.36;87.27;98409.36;219956;1277;22547;-78
2022/09/10 08:53:03;;;;;;;29.30;22.20;;;;;;;19.53;87.06;98412.20;219942;1277;25403;-79
2022/09/10 08:58:14;;;;;;;25.90;21.40;;;;;;;19.56;86.09;98412.79;220463;1277;24302;-78
2022/09/10 09:03:44;;;;;;;19.90;17.50;;;;;;;19.70;85.27;98411.59;220128;1277;22556;-78
2022/09/10 09:09:06;;;;;;;21.40;18.00;;;;;;;19.68;84.04;98407.83;220570;1277;22761;-79
2022/09/10 09:15:02;;;;;;;18.00;15.30;;;;;;;19.57;83.05;98406.68;220604;1277;25411;-78
2022/09/10 09:20:35;;;;;;;18.90;16.40;;;;;;;19.62;83.72;98401.48;220475;1276;24416;-78
2022/09/10 09:26:13;;;;;;;17.00;14.80;;;;;;;19.79;83.23;98401.45;220433;1277;25425;-77
2022/09/10 09:31:57;;;;;;;14.30;12.80;;;;;;;19.89;82.37;98401.74;220605;1277;25467;-79
2022/09/10 09:37:17;;;;;;;14.70;13.00;;;;;;;19.84;81.96;98399.09;203574;1277;1016263;-77
2022/09/10 09:43:49;;;;;;;12.20;10.80;;;;;;;19.84;81.58;98400.27;220385;1277;22596;-78
2022/09/10 09:49:15;;;;;;;9.10;8.10;;;;;;;20.08;82.35;98392.92;182474;1284;1015942;-79
2022/09/10 09:54:48;;;;;;;9.60;7.50;;;;;;;20.29;81.74;98392.52;220131;1277;22554;-77
2022/09/10 10:00:52;;;;;;;;;;;;;;;;;;;;;
2022/09/10 10:06:18;;;;;;;7.30;4.90;;;;;;;20.79;81.33;98377.86;220278;1277;22678;-79
2022/09/10 10:12:18;;;;;;;4.90;4.50;;;;;;;21.05;81.00;98376.30;220370;1277;24327;-78
2022/09/10 10:17:44;;;;;;;2.80;2.70;;;;;;;21.12;79.32;98371.33;218192;1278;1003486;-79
2022/09/10 10:22:49;;;;;;;50.80;34.10;;;;;;;21.04;77.72;98367.09;221625;1277;26515;-81
2022/09/10 10:28:12;;;;;;;5.60;3.80;;;;;;;20.96;77.23;98363.73;220247;1277;22544;-79
2022/09/10 10:33:18;;;;;;;3.40;3.20;;;;;;;21.19;77.99;98362.40;220165;1277;22733;-79
2022/09/10 10:38:36;;;;;;;3.10;2.70;;;;;;;21.43;76.53;98363.30;220120;1277;25341;-79
2022/09/10 10:44:13;;;;;;;2.40;2.20;;;;;;;21.32;75.08;98359.06;220277;1276;23068;-77
2022/09/10 10:49:54;;;;;;;2.00;1.90;;;;;;;21.47;76.05;98357.21;220510;1276;22551;-78
2022/09/10 10:56:08;;;;;;;1.80;1.70;;;;;;;21.78;76.02;98347.07;220322;1276;23107;-78
2022/09/10 11:01:44;;;;;;;2.00;1.90;;;;;;;21.81;74.91;98349.59;144236;1277;1016827;-79
2022/09/10 11:06:57;;;;;;;1.60;1.50;;;;;;;21.83;74.90;98347.12;109970;1278;1016401;-78
2022/09/10 11:12:26;;;;;;;1.50;1.40;;;;;;;21.63;74.17;98343.95;197988;1276;1016368;-79
2022/09/10 11:18:04;;;;;;;2.50;1.80;;;;;;;21.53;74.50;98344.07;197291;1277;1016015;-79
2022/09/10 11:23:58;;;;;;;1.40;1.30;;;;;;;21.55;74.65;98338.95;219899;1277;24282;-80
2022/09/10 11:29:31;;;;;;;1.90;1.80;;;;;;;21.37;72.95;98336.30;216081;1277;1003208;-79
2022/09/10 11:35:46;;;;;;;18.30;13.20;;;;;;;21.47;73.48;98335.95;206055;1276;1005474;-80
2022/09/10 11:41:41;;;;;;;2.60;2.40;;;;;;;21.68;73.46;98327.80;219905;1277;22564;-79
2022/09/10 11:46:56;;;;;;;3.20;2.20;;;;;;;21.83;72.58;98321.42;217197;1282;1003608;-80
2022/09/10 11:52:12;;;;;;;2.70;2.50;;;;;;;21.86;71.87;98316.54;219954;1277;22544;-80
2022/09/10 11:58:04;;;;;;;2.00;1.70;;;;;;;21.77;71.87;98316.52;221029;1276;23214;-79
2022/09/10 12:03:39;;;;;;;1.80;1.70;;;;;;;21.83;72.23;98311.91;220981;1276;22579;-79
2022/09/10 12:09:06;;;;;;;3.50;2.70;;;;;;;22.17;72.68;98308.30;220059;1277;22710;-80
2022/09/10 12:14:40;;;;;;;2.60;2.30;;;;;;;22.46;72.24;98309.33;219670;1278;25355;-80
2022/09/10 12:19:53;;;;;;;2.60;2.40;;;;;;;22.64;71.79;98305.02;220090;1276;22621;-79
2022/09/10 12:25:27;;;;;;;4.60;3.30;;;;;;;22.76;71.14;98303.14;219520;1276;1002084;-79
2022/09/10 12:30:42;;;;;;;4.40;4.00;;;;;;;22.84;70.92;98294.67;220311;1276;22547;-79
2022/09/10 12:36:06;;;;;;;7.60;5.30;;;;;;;22.73;70.94;98287.42;220064;1277;22904;-80
2022/09/10 12:41:49;;;;;;;4.90;4.40;;;;;;;22.47;70.34;98286.73;220070;1276;25549;-84
2022/09/10 12:47:38;;;;;;;5.20;4.40;;;;;;;22.47;70.74;98279.95;220019;1276;23012;-79
2022/09/10 12:53:24;;;;;;;5.00;3.70;;;;;;;22.48;69.38;98270.37;219952;1276;23482;-79
2022/09/10 12:58:54;;;;;;;4.50;3.50;;;;;;;22.57;68.96;98253.41;220082;1277;22552;-78
2022/09/10 13:04:13;;;;;;;6.40;4.20;;;;;;;22.50;68.62;98240.04;220024;1276;22739;-79
2022/09/10 13:09:36;;;;;;;23.20;20.10;;;;;;;22.46;67.97;98239.95;220188;1276;22556;-79
2022/09/10 13:14:56;;;;;;;4.10;3.70;;;;;;;22.59;68.15;98243.85;220186;1278;22574;-79
2022/09/10 13:20:34;;;;;;;3.60;3.30;;;;;;;22.84;68.21;98246.15;220316;1277;24677;-80
2022/09/10 13:26:53;;;;;;;4.10;3.70;;;;;;;23.08;67.45;98245.39;219966;1277;24292;-78
2022/09/10 13:32:13;;;;;;;2.60;2.40;;;;;;;23.20;66.72;98239.75;220079;1276;22770;-81
2022/09/10 13:38:36;;;;;;;;;;;;;;;;;;;;;
2022/09/10 13:44:14;;;;;;;4.10;3.00;;;;;;;22.62;65.10;98235.89;217169;1277;3839252;-80
2022/09/10 13:50:32;;;;;;;3.10;2.60;;;;;;;22.44;65.79;98239.21;220982;1276;24181;-79
2022/09/10 13:56:17;;;;;;;3.40;2.30;;;;;;;22.30;65.83;98231.95;219845;1276;22740;-78
2022/09/10 14:01:53;;;;;;;2.20;2.00;;;;;;;22.09;66.53;98227.29;219941;1277;24243;-79
2022/09/10 14:08:04;;;;;;;2.60;2.40;;;;;;;21.73;66.57;98224.98;220022;1277;22491;-79
2022/09/10 14:13:53;;;;;;;2.20;2.00;;;;;;;21.48;67.46;98213.36;219833;1278;25388;-79
2022/09/10 14:20:14;;;;;;;2.40;2.20;;;;;;;21.23;68.02;98205.01;220116;1276;22645;-79
2022/09/10 14:25:43;;;;;;;3.00;2.00;;;;;;;21.03;68.53;98199.04;220064;1277;22612;-78
2022/09/10 14:31:09;;;;;;;2.10;1.90;;;;;;;20.85;68.65;98202.41;220114;1277;22572;-79
2022/09/10 14:37:07;;;;;;;2.40;2.20;;;;;;;20.71;69.66;98212.20;220204;1276;25265;-79
2022/09/10 14:42:56;;;;;;;2.80;1.80;;;;;;;20.61;70.13;98218.50;220194;1276;22560;-79
2022/09/10 14:49:07;;;;;;;2.10;1.80;;;;;;;20.46;70.49;98224.98;220125;1277;22608;-78
2022/09/10 14:54:40;;;;;;;1.60;1.50;;;;;;;20.27;70.62;98210.96;220206;1276;24326;-78
2022/09/10 15:00:25;;;;;;;1.60;1.50;;;;;;;20.09;70.93;98201.70;220246;1277;22731;-77
2022/09/10 15:06:24;;;;;;;1.70;1.50;;;;;;;20.16;71.97;98200.39;220387;1277;22566;-79
2022/09/10 15:12:22;;;;;;;1.60;1.50;;;;;;;20.32;72.38;98200.23;220077;1278;22553;-79
2022/09/10 15:18:11;;;;;;;1.30;1.20;;;;;;;20.18;71.81;98209.52;219894;1279;22559;-79
2022/09/10 15:23:50;;;;;;;2.90;1.50;;;;;;;20.01;72.28;98213.92;219300;1281;22621;-79
2022/09/10 15:30:01;;;;;;;1.50;1.20;;;;;;;19.88;72.92;98211.77;219017;1282;24396;-77
2022/09/10 15:35:24;;;;;;;1.80;1.50;;;;;;;19.83;72.52;98210.15;218893;1284;24252;-80
2022/09/10 15:41:01;;;;;;;2.40;1.20;;;;;;;19.86;72.79;98203.52;218965;1282;24360;-78
2022/09/10 15:46:23;;;;;;;1.60;1.50;;;;;;;19.89;72.30;98199.06;219046;1281;24452;-79
2022/09/10 15:51:42;;;;;;;2.10;1.40;;;;;;;19.96;72.79;98208.56;219655;1281;22575;-78
2022/09/10 15:57:21;;;;;;;;;;;;;;;;;;;;;
2022/09/10 16:02:38;;;;;;;1.60;1.40;;;;;;;19.96;72.60;98210.20;220119;1276;25459;-80
2022/09/10 16:08:12;;;;;;;1.40;1.30;;;;;;;19.92;72.72;98214.94;219640;1281;25422;-78
2022/09/10 16:13:53;;;;;;;;;;;;;;;;;;;;;
2022/09/10 16:19:24;;;;;;;1.60;1.50;;;;;;;19.74;73.33;98232.02;219532;1281;22637;-78
2022/09/10 16:24:52;;;;;;;2.20;1.70;;;;;;;19.54;73.44;98236.09;219545;1281;23160;-80
2022/09/10 16:30:29;;;;;;;1.70;1.60;;;;;;;19.29;73.84;98228.73;219803;1277;22544;-79
2022/09/10 16:35:38;;;;;;;1.80;1.50;;;;;;;19.09;74.56;98221.33;219890;1276;22554;-79
2022/09/10 16:41:10;;;;;;;1.40;1.30;;;;;;;18.87;75.21;98230.11;220078;1276;25412;-79
2022/09/10 16:47:01;;;;;;;1.40;1.30;;;;;;;18.68;76.02;98232.88;220197;1276;22736;-79
2022/09/10 16:52:06;;;;;;;1.70;1.60;;;;;;;18.49;76.51;98226.04;219885;1278;24414;-79
2022/09/10 16:57:43;;;;;;;2.30;2.00;;;;;;;18.34;77.13;98219.03;219848;1277;22598;-78
2022/09/10 17:03:32;;;;;;;;;;;;;;;;;;;;;
2022/09/10 17:09:24;;;;;;;5.00;1.60;;;;;;;17.96;78.01;98222.60;220096;1276;22643;-78
2022/09/10 17:15:57;;;;;;;3.00;2.00;;;;;;;17.82;78.61;98228.35;220065;1276;23036;-78
2022/09/10 17:21:17;;;;;;;1.70;0.90;;;;;;;17.59;77.89;98255.39;220001;1277;22726;-78
2022/09/10 17:27:00;;;;;;;2.90;1.00;;;;;;;17.02;77.68;98260.26;220193;1276;22598;-81
2022/09/10 17:33:06;;;;;;;1.80;0.90;;;;;;;15.54;77.99;98249.20;220952;1277;23074;-79
2022/09/10 17:38:52;;;;;;;2.40;1.00;;;;;;;14.82;80.20;98252.63;220827;1277;24367;-80
2022/09/10 17:44:27;;;;;;;2.80;1.10;;;;;;;14.38;82.14;98253.78;221037;1276;22599;-79
2022/09/10 17:49:44;;;;;;;4.00;1.50;;;;;;;14.11;83.31;98259.14;220913;1276;23373;-78
2022/09/10 17:54:56;;;;;;;1.50;1.20;;;;;;;13.95;84.36;98255.73;220909;1278;25332;-78
2022/09/10 18:00:04;;;;;;;5.60;2.90;;;;;;;13.83;85.01;98244.70;221233;1276;23815;-79
2022/09/10 18:06:28;;;;;;;1.90;1.80;;;;;;;13.75;85.90;98237.59;220934;1276;22554;-79
2022/09/10 18:11:39;;;;;;;3.10;2.20;;;;;;;13.63;86.91;98237.31;220958;1278;23833;-77
2022/09/10 18:16:50;;;;;;;2.90;2.00;;;;;;;13.55;87.57;98248.65;220131;1277;22668;-80
2022/09/10 18:22:19;;;;;;;4.60;2.00;;;;;;;13.47;88.22;98256.23;219962;1278;23834;-78
2022/09/10 18:28:12;;;;;;;;;;;;;;;;;;;;;
2022/09/10 18:34:20;;;;;;;2.30;2.10;;;;;;;13.34;89.50;98257.91;220920;1278;22718;-78
2022/09/10 18:40:09;;;;;;;3.00;1.70;;;;;;;13.29;89.97;98253.73;219771;1277;22593;-78
2022/09/10 18:46:32;;;;;;;;;;;;;;;;;;;;;
2022/09/10 19:01:01;;;;;;;3.30;2.30;;;;;;;13.24;91.96;98240.05;221060;1277;22725;-78
2022/09/10 19:07:05;;;;;;;4.40;2.90;;;;;;;13.19;92.20;98246.31;219889;1281;22578;-79
2022/09/10 19:13:06;;;;;;;3.80;1.90;;;;;;;13.12;92.60;98241.63;220008;1285;22592;-78
2022/09/10 19:18:46;;;;;;;5.10;2.50;;;;;;;13.08;93.08;98241.94;218408;1284;24041;-78
2022/09/10 19:23:59;;;;;;;5.30;4.10;;;;;;;13.05;93.83;98242.89;220457;1279;24297;-78
2022/09/10 19:37:20;;;;;;;7.20;4.90;;;;;;;12.96;94.46;98244.58;220458;1281;22548;-78
2022/09/10 19:42:56;;;;;;;;;;;;;;;12.93;94.64;98237.11;219732;1281;25321;-78
2022/09/10 19:48:20;;;;;;;6.90;4.40;;;;;;;12.86;94.62;98232.68;219576;1281;22492;-77
2022/09/10 19:53:59;;;;;;;4.90;4.00;;;;;;;12.78;94.82;98232.11;219451;1281;22737;-80
2022/09/10 19:59:07;;;;;;;6.70;4.70;;;;;;;12.72;95.08;98233.75;220778;1276;23188;-78
2022/09/10 20:11:37;;;;;;;;;;;;;;;;;;;;;
2022/09/10 20:18:27;;;;;;;;;;;;;;;;;;;;;
2022/09/10 20:24:20;;;;;;;4.90;4.30;;;;;;;12.62;96.00;98233.04;219331;1281;25393;-78
2022/09/10 20:30:38;;;;;;;5.50;4.20;;;;;;;12.60;96.87;98229.61;219736;1277;22538;-78
2022/09/10 20:36:56;;;;;;;;;;;;;;;;;;;;;
2022/09/10 20:42:44;;;;;;;;;;;;;;;;;;;;;
2022/09/10 20:47:49;;;;;;;9.40;7.40;;;;;;;12.41;98.11;98235.90;220110;1276;22549;-79
2022/09/10 20:52:54;;;;;;;9.20;7.70;;;;;;;12.40;98.52;98231.40;220293;1276;24264;-77
2022/09/10 20:58:19;;;;;;;9.60;5.90;;;;;;;12.39;98.47;98233.96;220976;1276;22574;-79
2022/09/10 21:03:22;;;;;;;9.10;6.60;;;;;;;12.38;98.95;98234.12;220130;1276;22775;-78
2022/09/10 21:08:49;;;;;;;6.30;5.30;;;;;;;12.34;98.99;98235.95;219989;1277;22535;-78
2022/09/10 21:14:54;;;;;;;7.60;5.10;;;;;;;12.31;99.76;98245.26;221152;1278;22601;-77
2022/09/10 21:21:05;;;;;;;8.00;4.30;;;;;;;12.29;100.00;98250.78;220067;1278;23016;-77
2022/09/10 21:27:21;;;;;;;7.10;5.20;;;;;;;12.24;99.84;98249.14;220083;1278;24286;-78
2022/09/10 21:34:03;;;;;;;4.70;4.00;;;;;;;12.17;100.00;98246.30;220266;1278;22536;-78
2022/09/10 21:40:33;;;;;;;;;;;;;;;;;;;;;
2022/09/10 21:46:19;;;;;;;7.70;4.40;;;;;;;12.11;99.94;98252.69;220297;1278;22560;-77
2022/09/10 21:51:46;;;;;;;4.10;3.50;;;;;;;12.08;99.86;98247.55;221063;1278;25529;-78
2022/09/10 21:57:17;;;;;;;6.10;3.40;;;;;;;12.08;100.00;98249.14;220563;1278;22565;-78
2022/09/10 22:02:22;;;;;;;9.00;4.60;;;;;;;12.07;100.00;98247.73;220809;1277;22563;-78
2022/09/10 22:07:43;;;;;;;7.20;5.90;;;;;;;12.08;100.00;98248.27;220095;1278;24212;-79
2022/09/10 22:14:24;;;;;;;5.90;3.70;;;;;;;12.11;100.00;98253.67;220855;1278;22704;-77
2022/09/10 22:20:55;;;;;;;5.50;4.20;;;;;;;12.17;100.00;98259.30;221026;1278;22604;-78
2022/09/10 22:26:37;;;;;;;3.90;3.50;;;;;;;12.22;100.00;98258.79;220963;1278;25268;-78
2022/09/10 22:32:43;;;;;;;4.80;3.70;;;;;;;12.28;100.00;98261.20;219857;1278;22560;-77
2022/09/10 22:53:17;;;;;;;4.60;4.10;;;;;;;12.53;100.00;98256.45;218889;1287;24271;-77
2022/09/10 23:07:05;;;;;;;7.60;4.90;;;;;;;12.61;100.00;98251.98;219949;1284;22577;-78
2022/09/10 23:13:23;;;;;;;;;;;;;;;;;;;;;
2022/09/10 23:19:54;;;;;;;4.30;3.50;;;;;;;12.62;100.00;98250.12;220998;1278;22569;-79
2022/09/10 23:26:06;;;;;;;6.30;5.00;;;;;;;12.64;100.00;98249.95;220939;1276;22819;-78
2022/09/10 23:32:19;;;;;;;5.80;4.80;;;;;;;12.66;100.00;98249.52;220760;1277;23286;-78
2022/09/10 23:38:19;;;;;;;;;;;;;;;;;;;;;
2022/09/10 23:44:45;;;;;;;;;;;;;;;;;;;;;
2022/09/10 23:50:38;;;;;;;5.20;3.80;;;;;;;12.69;100.00;98240.36;219949;1278;22765;-78
2022/09/10 23:57:03;;;;;;;;;;;;;;;;;;;;;
